Time;durP1;ratioP1;P1;durP2;ratioP2;P2;SDS_P1;SDS_P2;PMS_P1;PMS_P2;Temp;Humidity;BMP_temperature;BMP_pressure;BME280_temperature;BME280_humidity;BME280_pressure;Samples;Min_cycle;Max_cycle;Signal;HPM_P1;HPM_P2
2022/03/16 00:00:21;;;;;;;65.32;48.03;;;7.10;99.90;;;;;;6207559;23;20043;-81
2022/03/16 00:02:47;;;;;;;73.22;50.20;;;7.10;99.90;;;;;;6180194;23;20479;-81
2022/03/16 00:05:14;;;;;;;64.82;47.10;;;7.10;99.90;;;;;;6207179;23;20012;-80
2022/03/16 00:07:41;;;;;;;68.70;48.28;;;7.10;99.90;;;;;;6209812;23;20398;-81
2022/03/16 00:10:08;;;;;;;71.75;49.00;;;7.10;99.90;;;;;;6184862;23;20051;-81
2022/03/16 00:12:34;;;;;;;;;;;7.10;99.90;;;;;;6183194;23;20020;-81
2022/03/16 00:15:00;;;;;;;63.50;46.70;;;7.10;99.90;;;;;;6204727;23;20705;-80
2022/03/16 00:17:26;;;;;;;66.72;47.38;;;7.00;99.90;;;;;;6208987;23;20017;-81
2022/03/16 00:19:52;;;;;;;68.53;47.92;;;7.00;99.90;;;;;;6207606;23;20835;-81
2022/03/16 00:22:17;;;;;;;69.38;47.95;;;7.00;99.90;;;;;;6210893;23;20020;-81
2022/03/16 00:24:43;;;;;;;66.72;48.08;;;7.00;99.90;;;;;;6209764;23;20514;-81
2022/03/16 00:27:09;;;;;;;61.83;46.78;;;7.00;99.90;;;;;;6209437;23;20023;-80
2022/03/16 00:29:35;;;;;;;65.28;48.65;;;6.90;99.90;;;;;;6180951;23;20028;-81
2022/03/16 00:32:00;;;;;;;72.32;50.97;;;6.90;99.90;;;;;;6208483;23;20020;-81
2022/03/16 00:34:26;;;;;;;71.13;46.83;;;6.90;99.90;;;;;;6210851;23;20083;-80
2022/03/16 00:36:52;;;;;;;67.35;48.55;;;6.90;99.90;;;;;;6182785;23;20024;-80
2022/03/16 00:39:17;;;;;;;66.13;49.05;;;6.80;99.90;;;;;;6211543;23;20063;-81
2022/03/16 00:41:43;;;;;;;71.70;49.67;;;6.80;99.90;;;;;;6209421;23;20015;-81
2022/03/16 00:44:09;;;;;;;72.65;48.70;;;6.80;99.90;;;;;;6208885;23;20380;-80
2022/03/16 00:46:36;;;;;;;65.00;46.55;;;6.80;99.90;;;;;;6208822;23;20092;-81
2022/03/16 00:49:02;;;;;;;;;;;6.80;99.90;;;;;;6210021;23;20019;-81
2022/03/16 00:51:28;;;;;;;73.20;49.90;;;6.70;99.90;;;;;;6209947;23;19927;-81
2022/03/16 00:53:54;;;;;;;70.35;48.85;;;6.70;99.90;;;;;;6209023;23;20029;-81
2022/03/16 00:56:20;;;;;;;76.38;50.42;;;6.70;99.90;;;;;;6183267;23;20096;-81
2022/03/16 00:58:46;;;;;;;72.60;50.05;;;6.70;99.90;;;;;;6181822;23;20102;-81
2022/03/16 01:01:11;;;;;;;72.13;50.40;;;6.70;99.90;;;;;;6176045;23;20063;-81
2022/03/16 01:03:40;;;;;;;69.05;48.42;;;6.70;99.90;;;;;;6210103;23;20031;-81
2022/03/16 01:06:12;;;;;;;71.85;49.78;;;6.60;99.90;;;;;;6210094;23;20017;-81
2022/03/16 01:08:38;;;;;;;63.75;47.13;;;6.60;99.90;;;;;;6183406;23;20752;-81
2022/03/16 01:11:04;;;;;;;76.73;50.93;;;6.60;99.90;;;;;;6208844;23;20023;-81
2022/03/16 01:13:30;;;;;;;62.70;47.13;;;6.60;99.90;;;;;;6209539;23;20323;-81
2022/03/16 01:15:55;;;;;;;68.82;50.25;;;6.60;99.90;;;;;;6206625;23;20184;-81
2022/03/16 01:18:21;;;;;;;67.20;48.90;;;6.60;99.90;;;;;;6184771;23;20020;-81
2022/03/16 01:20:46;;;;;;;66.03;47.90;;;6.60;99.90;;;;;;6211887;23;20020;-81
2022/03/16 01:23:12;;;;;;;60.85;47.00;;;6.60;99.90;;;;;;6212380;23;20020;-81
2022/03/16 01:25:37;;;;;;;68.65;48.17;;;6.60;99.90;;;;;;6185757;23;20095;-81
2022/03/16 01:28:06;;;;;;;71.72;49.55;;;6.60;99.90;;;;;;6212893;23;20095;-81
2022/03/16 01:30:32;;;;;;;61.13;47.50;;;6.60;99.90;;;;;;6181553;23;20095;-81
2022/03/16 01:32:57;;;;;;;64.63;47.35;;;6.60;99.90;;;;;;6212015;23;20078;-81
2022/03/16 01:35:23;;;;;;;61.78;46.45;;;6.60;99.90;;;;;;6213211;23;20012;-81
2022/03/16 01:37:49;;;;;;;62.00;45.45;;;6.60;99.90;;;;;;6211112;23;20068;-81
2022/03/16 01:40:14;;;;;;;62.35;43.92;;;6.60;99.90;;;;;;6211658;23;20524;-81
2022/03/16 01:42:41;;;;;;;62.95;46.53;;;6.50;99.90;;;;;;6211506;23;20055;-81
2022/03/16 01:45:07;;;;;;;57.30;42.40;;;6.50;99.90;;;;;;6209371;23;20384;-79
2022/03/16 01:47:33;;;;;;;62.22;45.47;;;6.50;99.90;;;;;;6184933;23;20021;-81
2022/03/16 01:49:58;;;;;;;67.13;47.88;;;6.40;99.90;;;;;;6185183;23;20110;-80
2022/03/16 01:52:28;;;;;;;57.95;43.25;;;6.40;99.90;;;;;;6211803;23;20017;-80
2022/03/16 01:54:56;;;;;;;62.10;43.40;;;6.30;99.90;;;;;;6211814;23;20135;-80
2022/03/16 01:57:23;;;;;;;52.42;40.58;;;6.30;99.90;;;;;;6184300;23;20588;-81
2022/03/16 01:59:48;;;;;;;47.78;37.47;;;6.20;99.90;;;;;;6209149;23;20483;-81
2022/03/16 02:02:14;;;;;;;54.65;43.08;;;6.20;99.90;;;;;;6209059;23;20119;-81
2022/03/16 02:04:41;;;;;;;50.80;40.17;;;6.10;99.90;;;;;;6215313;23;20020;-80
2022/03/16 02:07:07;;;;;;;59.92;42.22;;;6.00;99.90;;;;;;6211370;23;20016;-81
2022/03/16 02:09:33;;;;;;;56.40;41.40;;;6.00;99.90;;;;;;6211903;23;20019;-81
2022/03/16 02:11:59;;;;;;;48.03;37.35;;;6.00;99.90;;;;;;6209869;23;20013;-80
2022/03/16 02:14:24;;;;;;;47.45;37.22;;;5.90;99.90;;;;;;6182251;23;20017;-81
2022/03/16 02:16:51;;;;;;;47.03;36.33;;;5.90;99.90;;;;;;6205567;23;20020;-80
2022/03/16 02:19:17;;;;;;;52.38;39.63;;;5.80;99.90;;;;;;6184552;23;20012;-81
2022/03/16 02:21:46;;;;;;;55.67;41.55;;;5.80;99.90;;;;;;6211416;23;20020;-80
2022/03/16 02:24:12;;;;;;;55.03;41.53;;;5.70;99.90;;;;;;6209276;23;20012;-80
2022/03/16 02:26:39;;;;;;;57.83;42.42;;;5.70;99.90;;;;;;6211192;23;20012;-80
2022/03/16 02:29:05;;;;;;;52.72;40.53;;;5.70;99.90;;;;;;6185148;23;20026;-80
2022/03/16 02:31:31;;;;;;;47.95;37.63;;;5.70;99.90;;;;;;6211999;23;20017;-81
2022/03/16 02:33:57;;;;;;;49.15;39.85;;;5.70;99.90;;;;;;6209635;23;20047;-80
2022/03/16 02:36:22;;;;;;;49.95;39.30;;;5.60;99.90;;;;;;6185819;23;20084;-81
2022/03/16 02:38:48;;;;;;;41.47;35.05;;;5.60;99.90;;;;;;6212050;23;20020;-81
2022/03/16 02:41:14;;;;;;;43.67;35.33;;;5.50;99.90;;;;;;6210636;23;20024;-81
2022/03/16 02:43:39;;;;;;;37.95;31.73;;;5.50;99.90;;;;;;6210632;23;20056;-80
2022/03/16 02:46:05;;;;;;;57.53;41.50;;;5.30;99.90;;;;;;6208773;23;20508;-81
2022/03/16 02:48:31;;;;;;;50.88;39.88;;;5.30;99.90;;;;;;6183531;23;20028;-81
2022/03/16 02:50:57;;;;;;;48.95;39.72;;;5.30;99.90;;;;;;6183762;23;20445;-81
2022/03/16 02:53:23;;;;;;;53.67;39.85;;;5.30;99.90;;;;;;6185446;23;20024;-80
2022/03/16 02:55:49;;;;;;;59.00;42.30;;;5.30;99.90;;;;;;6210973;23;20008;-80
2022/03/16 02:58:16;;;;;;;52.45;40.70;;;5.30;99.90;;;;;;6212617;23;20318;-80
2022/03/16 03:00:43;;;;;;;48.20;37.03;;;5.40;99.90;;;;;;6209908;23;20864;-80
2022/03/16 03:03:09;;;;;;;40.80;34.20;;;5.40;99.90;;;;;;6211847;23;20052;-80
2022/03/16 03:05:35;;;;;;;39.75;32.20;;;5.30;99.90;;;;;;6185812;23;20415;-80
2022/03/16 03:08:01;;;;;;;52.13;39.40;;;5.30;99.90;;;;;;6210586;23;20048;-80
2022/03/16 03:10:26;;;;;;;50.28;38.70;;;5.30;99.90;;;;;;6183842;23;20023;-81
2022/03/16 03:12:52;;;;;;;48.85;37.40;;;5.20;99.90;;;;;;6184958;23;20103;-81
2022/03/16 03:15:18;;;;;;;53.67;40.08;;;5.30;99.90;;;;;;6182002;23;20024;-80
2022/03/16 03:17:44;;;;;;;48.47;37.92;;;5.30;99.90;;;;;;6210628;23;20032;-81
2022/03/16 03:20:11;;;;;;;43.95;35.90;;;5.30;99.90;;;;;;6212318;23;20063;-81
2022/03/16 03:22:37;;;;;;;46.70;36.00;;;5.20;99.90;;;;;;6182888;23;20012;-80
2022/03/16 03:25:04;;;;;;;51.60;39.13;;;5.20;99.90;;;;;;6211692;23;20047;-81
2022/03/16 03:27:32;;;;;;;47.15;37.25;;;5.20;99.90;;;;;;6209587;23;20025;-81
2022/03/16 03:29:58;;;;;;;46.25;36.85;;;5.10;99.90;;;;;;6208201;23;20075;-81
2022/03/16 03:32:23;;;;;;;42.92;33.45;;;5.10;99.90;;;;;;6184247;23;20017;-80
2022/03/16 03:34:51;;;;;;;44.75;35.72;;;5.10;99.90;;;;;;6211213;23;20016;-80
2022/03/16 03:37:18;;;;;;;48.45;37.60;;;5.00;99.90;;;;;;6182223;23;20017;-81
2022/03/16 03:39:44;;;;;;;48.97;38.80;;;5.00;99.90;;;;;;6184586;23;20017;-81
2022/03/16 03:42:10;;;;;;;49.47;38.45;;;5.10;99.90;;;;;;6184200;23;20071;-81
2022/03/16 03:44:37;;;;;;;51.00;39.30;;;5.10;99.90;;;;;;6208681;23;20357;-81
2022/03/16 03:47:07;;;;;;;51.95;40.00;;;5.10;99.90;;;;;;6210021;23;20353;-80
2022/03/16 03:49:34;;;;;;;49.85;39.33;;;5.10;99.90;;;;;;6184794;23;20336;-81
2022/03/16 03:52:00;;;;;;;52.33;40.47;;;5.10;99.90;;;;;;6211714;23;20017;-80
2022/03/16 03:54:26;;;;;;;51.20;38.83;;;5.10;99.90;;;;;;6214970;23;20008;-81
2022/03/16 03:56:51;;;;;;;48.60;41.35;;;5.10;99.90;;;;;;6216933;23;20019;-81
2022/03/16 03:59:17;;;;;;;47.78;36.20;;;5.10;99.90;;;;;;6228919;23;20055;-80
2022/03/16 04:01:42;;;;;;;48.22;38.67;;;5.10;99.90;;;;;;6229518;23;20173;-80
2022/03/16 04:04:08;;;;;;;45.30;36.40;;;5.10;99.90;;;;;;6225376;23;20013;-80
2022/03/16 04:06:34;;;;;;;49.17;39.25;;;5.00;99.90;;;;;;6211503;23;20055;-80
2022/03/16 04:09:00;;;;;;;48.97;38.13;;;5.00;99.90;;;;;;6211403;23;20024;-80
2022/03/16 04:11:25;;;;;;;54.97;42.53;;;5.10;99.90;;;;;;6184684;23;20024;-80
2022/03/16 04:13:51;;;;;;;51.47;41.40;;;5.10;99.90;;;;;;6211712;23;20013;-81
2022/03/16 04:16:17;;;;;;;45.05;38.20;;;5.10;99.90;;;;;;6210895;23;20100;-81
2022/03/16 04:18:43;;;;;;;48.97;38.00;;;5.00;99.90;;;;;;6210138;23;20020;-81
2022/03/16 04:21:08;;;;;;;48.40;39.75;;;5.00;99.90;;;;;;6211114;23;20024;-81
2022/03/16 04:23:34;;;;;;;49.10;39.20;;;5.00;99.90;;;;;;6185272;23;20024;-80
2022/03/16 04:25:59;;;;;;;47.35;37.90;;;5.00;99.90;;;;;;6209903;23;20020;-81
2022/03/16 04:28:25;;;;;;;49.83;37.00;;;5.10;99.90;;;;;;6182258;23;20040;-81
2022/03/16 04:30:51;;;;;;;47.85;37.50;;;5.00;99.90;;;;;;6183167;23;20016;-81
2022/03/16 04:33:17;;;;;;;50.92;38.90;;;5.00;99.90;;;;;;6210470;23;20013;-80
2022/03/16 04:35:43;;;;;;;43.88;36.97;;;5.00;99.90;;;;;;6210438;23;20019;-80
2022/03/16 04:38:08;;;;;;;48.83;39.13;;;4.90;99.90;;;;;;6182858;23;20035;-81
2022/03/16 04:40:34;;;;;;;49.53;38.67;;;4.90;99.90;;;;;;6182150;23;20461;-80
2022/03/16 04:43:00;;;;;;;45.55;38.50;;;4.90;99.90;;;;;;6210069;23;20016;-81
2022/03/16 04:45:26;;;;;;;47.53;35.78;;;4.90;99.90;;;;;;6182136;23;20779;-81
2022/03/16 04:47:52;;;;;;;46.95;36.78;;;4.90;99.90;;;;;;6183394;23;20016;-81
2022/03/16 04:50:18;;;;;;;44.40;36.78;;;4.90;99.90;;;;;;6213111;23;20009;-81
2022/03/16 04:52:49;;;;;;;44.50;35.97;;;4.90;99.90;;;;;;6185596;23;20021;-81
2022/03/16 04:55:15;;;;;;;45.78;34.53;;;4.80;99.90;;;;;;6213061;23;20345;-80
2022/03/16 04:57:42;;;;;;;49.10;37.63;;;4.80;99.90;;;;;;6211972;23;20079;-80
2022/03/16 05:00:09;;;;;;;52.17;36.20;;;4.80;99.90;;;;;;6211854;23;20602;-80
2022/03/16 05:02:34;;;;;;;43.63;37.10;;;4.80;99.90;;;;;;6209451;23;20490;-81
2022/03/16 05:05:00;;;;;;;39.17;32.53;;;4.80;99.90;;;;;;6183978;23;20017;-80
2022/03/16 05:07:26;;;;;;;40.47;31.45;;;4.80;99.90;;;;;;6210657;23;20023;-81
2022/03/16 05:09:51;;;;;;;45.20;36.00;;;4.70;99.90;;;;;;6212585;23;20009;-80
2022/03/16 05:12:17;;;;;;;43.75;36.13;;;4.70;99.90;;;;;;6211760;23;20315;-80
2022/03/16 05:14:43;;;;;;;40.80;34.53;;;4.70;99.90;;;;;;6209524;23;20071;-80
2022/03/16 05:17:08;;;;;;;41.78;33.67;;;4.70;99.90;;;;;;6187113;23;20052;-80
2022/03/16 05:19:34;;;;;;;40.33;31.17;;;4.60;99.90;;;;;;6212370;23;20027;-80
2022/03/16 05:21:59;;;;;;;38.50;32.65;;;4.60;99.90;;;;;;6211211;23;20424;-80
2022/03/16 05:24:26;;;;;;;43.60;36.30;;;4.60;99.90;;;;;;6184469;23;20020;-80
2022/03/16 05:26:52;;;;;;;38.72;31.42;;;4.60;99.90;;;;;;6185571;23;20017;-80
2022/03/16 05:29:18;;;;;;;44.63;35.78;;;4.60;99.90;;;;;;6212580;23;20066;-80
2022/03/16 05:31:43;;;;;;;41.92;34.63;;;4.60;99.90;;;;;;6207502;23;20012;-80
2022/03/16 05:34:09;;;;;;;45.58;36.05;;;4.60;99.90;;;;;;6184128;23;20044;-80
2022/03/16 05:36:35;;;;;;;42.70;35.15;;;4.60;99.90;;;;;;6182147;23;20028;-81
2022/03/16 05:39:02;;;;;;;44.00;36.75;;;4.60;99.90;;;;;;6209790;23;20016;-80
2022/03/16 05:41:27;;;;;;;42.17;35.72;;;4.60;99.90;;;;;;6185752;23;20012;-80
2022/03/16 05:43:53;;;;;;;45.38;34.88;;;4.60;99.90;;;;;;6210280;23;20128;-81
2022/03/16 05:46:18;;;;;;;43.05;36.35;;;4.60;99.90;;;;;;6186311;23;20020;-81
2022/03/16 05:48:44;;;;;;;42.78;35.30;;;4.60;99.90;;;;;;6188646;23;20087;-80
2022/03/16 05:51:09;;;;;;;42.58;34.58;;;4.60;99.90;;;;;;6211474;23;20008;-80
2022/03/16 05:53:35;;;;;;;42.30;35.90;;;4.60;99.90;;;;;;6211278;23;20024;-80
2022/03/16 05:56:01;;;;;;;47.03;37.40;;;4.50;99.90;;;;;;6184555;23;20032;-81
2022/03/16 05:58:27;;;;;;;46.30;35.17;;;4.50;99.90;;;;;;6210777;23;20016;-80
2022/03/16 06:00:53;;;;;;;41.95;36.90;;;4.50;99.90;;;;;;6183089;23;20021;-82
2022/03/16 06:03:18;;;;;;;38.63;33.65;;;4.60;99.90;;;;;;6186363;23;20055;-82
2022/03/16 06:05:44;;;;;;;44.03;37.38;;;4.60;99.90;;;;;;6211204;23;20092;-81
2022/03/16 06:08:09;;;;;;;43.58;35.20;;;4.60;99.90;;;;;;6210616;23;20012;-81
2022/03/16 06:10:41;;;;;;;40.33;35.92;;;4.60;99.90;;;;;;6184743;23;20025;-81
2022/03/16 06:13:07;;;;;;;39.03;32.70;;;4.60;99.90;;;;;;6183801;23;20024;-81
2022/03/16 06:15:43;;;;;;;37.53;33.53;;;4.60;99.90;;;;;;6210910;23;20070;-81
2022/03/16 06:18:10;;;;;;;39.08;34.75;;;4.60;99.90;;;;;;6210999;23;20017;-82
2022/03/16 06:20:36;;;;;;;39.08;33.30;;;4.60;99.90;;;;;;6212658;23;20076;-81
2022/03/16 06:23:05;;;;;;;37.38;33.38;;;4.70;99.90;;;;;;6212044;23;20031;-81
2022/03/16 06:25:33;;;;;;;37.60;33.55;;;4.70;99.90;;;;;;6211471;23;20023;-81
2022/03/16 06:27:58;;;;;;;40.40;36.00;;;4.70;99.90;;;;;;6211710;23;20016;-81
2022/03/16 06:30:25;;;;;;;41.13;36.67;;;4.70;99.90;;;;;;6211532;23;20013;-81
2022/03/16 06:32:51;;;;;;;36.90;32.90;;;4.80;99.90;;;;;;6208070;23;20024;-81
2022/03/16 06:35:19;;;;;;;40.40;35.67;;;4.90;99.90;;;;;;6211355;23;20017;-81
2022/03/16 06:37:45;;;;;;;41.20;36.88;;;4.90;99.90;;;;;;6212331;23;20245;-81
2022/03/16 06:40:12;;;;;;;39.78;35.50;;;4.90;99.90;;;;;;6211601;23;20016;-81
2022/03/16 06:42:46;;;;;;;39.70;35.50;;;5.00;99.90;;;;;;6211644;23;20016;-81
2022/03/16 06:45:12;;;;;;;38.45;34.40;;;5.00;99.90;;;;;;6212065;23;20340;-81
2022/03/16 06:47:38;;;;;;;40.03;35.85;;;5.10;99.90;;;;;;6181823;23;20091;-82
2022/03/16 06:50:05;;;;;;;40.63;34.42;;;5.10;99.90;;;;;;6210835;23;20333;-82
2022/03/16 06:52:31;;;;;;;42.15;36.88;;;5.20;99.90;;;;;;6210799;23;20075;-82
2022/03/16 06:54:57;;;;;;;41.58;36.33;;;5.20;99.90;;;;;;6208321;23;20012;-82
2022/03/16 06:57:22;;;;;;;42.08;37.10;;;5.30;99.90;;;;;;6212532;23;20017;-80
2022/03/16 06:59:48;;;;;;;42.55;37.92;;;5.40;99.90;;;;;;6206775;23;20445;-81
2022/03/16 07:02:13;;;;;;;44.55;37.80;;;5.40;99.90;;;;;;6207101;23;20020;-83
2022/03/16 07:04:39;;;;;;;42.28;37.85;;;5.50;99.90;;;;;;6205640;23;20012;-83
2022/03/16 07:07:04;;;;;;;44.70;37.60;;;5.60;99.90;;;;;;6208243;23;20321;-83
2022/03/16 07:09:32;;;;;;;42.97;36.83;;;5.60;99.90;;;;;;6210759;23;20024;-83
2022/03/16 07:11:58;;;;;;;41.70;36.42;;;5.70;99.90;;;;;;6211109;23;20056;-83
2022/03/16 07:14:33;;;;;;;43.28;38.67;;;5.70;99.90;;;;;;6206805;23;20079;-82
2022/03/16 07:16:59;;;;;;;40.13;35.80;;;5.70;99.90;;;;;;6210589;23;20008;-82
2022/03/16 07:19:25;;;;;;;41.33;36.90;;;5.70;99.90;;;;;;6211253;23;20412;-82
2022/03/16 07:21:51;;;;;;;40.83;36.38;;;5.70;99.90;;;;;;6211081;23;20012;-81
2022/03/16 07:24:16;;;;;;;40.65;36.47;;;5.70;99.90;;;;;;6212008;23;20020;-81
2022/03/16 07:26:42;;;;;;;39.70;35.38;;;5.70;99.90;;;;;;6183901;23;20013;-81
2022/03/16 07:29:08;;;;;;;40.10;35.88;;;5.80;99.90;;;;;;6181579;23;20024;-81
2022/03/16 07:31:34;;;;;;;40.00;35.90;;;5.80;99.90;;;;;;6183942;23;20027;-81
2022/03/16 07:34:00;;;;;;;41.25;36.83;;;5.90;99.90;;;;;;6211098;23;20021;-81
2022/03/16 07:36:27;;;;;;;41.63;37.25;;;5.90;99.90;;;;;;6209127;23;20036;-82
2022/03/16 07:38:53;;;;;;;40.58;36.40;;;5.80;99.90;;;;;;6214486;23;20048;-82
2022/03/16 07:41:19;;;;;;;39.70;35.55;;;5.90;99.90;;;;;;6186553;23;20041;-81
2022/03/16 07:43:45;;;;;;;40.90;36.60;;;5.90;99.90;;;;;;6184035;23;20056;-82
2022/03/16 07:46:10;;;;;;;40.47;36.20;;;6.00;99.90;;;;;;6183200;23;20016;-81
2022/03/16 07:48:37;;;;;;;40.85;36.65;;;6.00;99.90;;;;;;6183048;23;20025;-82
2022/03/16 07:51:03;;;;;;;42.70;38.17;;;6.10;99.90;;;;;;6209273;23;20016;-82
2022/03/16 07:53:29;;;;;;;42.53;36.88;;;6.20;99.90;;;;;;6183457;23;20030;-82
2022/03/16 07:55:56;;;;;;;40.83;35.78;;;6.40;99.90;;;;;;6210310;23;20013;-81
2022/03/16 07:58:22;;;;;;;38.63;34.42;;;6.50;99.90;;;;;;6184104;23;20067;-81
2022/03/16 08:00:48;;;;;;;40.03;35.00;;;6.70;99.90;;;;;;6210264;23;20016;-82
2022/03/16 08:03:14;;;;;;;41.95;34.50;;;6.70;99.90;;;;;;6207784;23;20115;-82
2022/03/16 08:05:40;;;;;;;39.03;34.85;;;6.80;99.90;;;;;;6211265;23;20055;-81
2022/03/16 08:08:06;;;;;;;41.10;35.25;;;6.90;99.90;;;;;;6209147;23;20020;-81
2022/03/16 08:10:31;;;;;;;41.40;35.92;;;7.00;99.90;;;;;;6210849;23;20447;-82
2022/03/16 08:12:57;;;;;;;38.85;33.88;;;7.10;99.90;;;;;;6208962;23;20025;-81
2022/03/16 08:15:23;;;;;;;39.13;35.03;;;7.10;99.90;;;;;;6211027;23;20051;-81
2022/03/16 08:17:49;;;;;;;42.65;35.35;;;7.30;99.90;;;;;;6182900;23;20020;-82
2022/03/16 08:20:14;;;;;;;39.05;34.85;;;7.30;99.90;;;;;;6184328;23;20024;-79
2022/03/16 08:22:40;;;;;;;41.17;36.03;;;7.30;99.90;;;;;;6208463;23;20341;-79
2022/03/16 08:25:08;;;;;;;41.28;36.05;;;7.30;99.90;;;;;;6209410;23;20420;-81
2022/03/16 08:27:35;;;;;;;38.47;34.30;;;7.40;99.90;;;;;;6185050;23;20028;-77
2022/03/16 08:30:01;;;;;;;42.25;36.15;;;7.50;99.90;;;;;;6212234;23;20330;-77
2022/03/16 08:32:27;;;;;;;42.92;35.92;;;7.60;99.90;;;;;;6213460;23;20020;-79
2022/03/16 08:34:53;;;;;;;47.08;37.53;;;7.70;99.90;;;;;;6191672;23;20019;-80
2022/03/16 08:37:19;;;;;;;44.10;37.35;;;7.70;99.90;;;;;;6185441;23;20023;-79
2022/03/16 08:39:46;;;;;;;43.78;36.55;;;7.80;99.90;;;;;;6211536;23;20092;-81
2022/03/16 08:42:12;;;;;;;43.65;36.45;;;7.90;99.90;;;;;;6212660;23;20020;-79
2022/03/16 08:44:39;;;;;;;43.53;35.75;;;8.00;99.90;;;;;;6185815;23;20054;-79
2022/03/16 08:47:05;;;;;;;42.08;36.40;;;8.00;99.90;;;;;;6210736;23;20025;-76
2022/03/16 08:49:31;;;;;;;43.35;36.05;;;8.10;99.90;;;;;;6185897;23;20459;-76
2022/03/16 08:51:57;;;;;;;40.70;35.58;;;8.20;99.90;;;;;;6211261;23;20695;-75
2022/03/16 08:54:24;;;;;;;41.25;35.20;;;8.30;99.90;;;;;;6211000;23;20013;-76
2022/03/16 08:56:50;;;;;;;42.20;34.15;;;8.40;99.90;;;;;;6211695;23;20086;-76
2022/03/16 08:59:16;;;;;;;35.13;30.92;;;8.40;99.90;;;;;;6184948;23;20083;-75
2022/03/16 09:01:41;;;;;;;37.60;31.35;;;8.50;99.90;;;;;;6185450;23;20453;-75
2022/03/16 09:04:08;;;;;;;36.42;31.00;;;8.60;99.90;;;;;;6211679;23;20024;-75
2022/03/16 09:06:33;;;;;;;37.83;32.22;;;8.60;99.90;;;;;;6211619;23;20158;-85
2022/03/16 09:08:59;;;;;;;37.13;32.30;;;8.70;99.90;;;;;;6210795;23;20337;-77
2022/03/16 09:11:24;;;;;;;34.55;30.73;;;8.80;99.90;;;;;;6211834;23;20013;-76
2022/03/16 09:13:50;;;;;;;35.53;29.58;;;8.90;99.90;;;;;;6183304;23;20021;-76
2022/03/16 09:16:16;;;;;;;35.88;29.80;;;9.00;99.90;;;;;;6211425;23;20499;-76
2022/03/16 09:18:42;;;;;;;30.45;26.80;;;9.10;99.90;;;;;;6185011;23;20317;-77
2022/03/16 09:21:08;;;;;;;34.55;27.23;;;9.20;99.90;;;;;;6184995;23;20027;-78
2022/03/16 09:23:33;;;;;;;31.33;26.92;;;9.20;99.90;;;;;;6185745;23;20067;-78
2022/03/16 09:25:59;;;;;;;29.50;26.23;;;9.20;99.90;;;;;;6211938;23;20530;-77
2022/03/16 09:28:25;;;;;;;29.25;25.17;;;9.30;99.90;;;;;;6211660;23;20024;-77
2022/03/16 09:30:51;;;;;;;27.58;23.90;;;9.40;99.90;;;;;;6186836;23;20088;-77
2022/03/16 09:33:17;;;;;;;25.55;22.25;;;9.40;99.90;;;;;;6212475;23;20105;-78
2022/03/16 09:35:44;;;;;;;27.30;22.02;;;9.50;99.90;;;;;;6213048;23;20067;-78
2022/03/16 09:38:12;;;;;;;25.15;21.63;;;9.60;99.90;;;;;;6187139;23;20095;-77
2022/03/16 09:40:38;;;;;;;;;;;9.70;99.90;;;;;;6215107;23;20067;-78
2022/03/16 09:43:10;;;;;;;24.55;21.13;;;9.80;99.90;;;;;;6212317;23;19919;-78
2022/03/16 09:45:53;;;;;;;26.13;20.83;;;9.80;99.90;;;;;;6213569;23;20027;-78
2022/03/16 09:48:21;;;;;;;24.45;20.08;;;9.90;99.90;;;;;;6213507;23;20096;-78
2022/03/16 09:50:47;;;;;;;26.42;20.23;;;10.00;99.90;;;;;;6185775;23;20020;-77
2022/03/16 09:53:15;;;;;;;24.60;21.02;;;10.00;99.90;;;;;;6213845;23;20127;-77
2022/03/16 09:55:41;;;;;;;24.63;20.25;;;10.10;99.90;;;;;;6212553;23;20560;-78
2022/03/16 09:58:07;;;;;;;25.35;20.55;;;10.20;99.90;;;;;;6213744;23;20016;-80
2022/03/16 10:00:33;;;;;;;25.15;20.98;;;10.30;99.90;;;;;;6214167;23;20094;-79
2022/03/16 10:03:02;;;;;;;25.23;20.15;;;10.40;99.90;;;;;;6211884;23;20024;-79
2022/03/16 10:05:29;;;;;;;25.52;20.23;;;10.40;99.90;;;;;;6213316;23;20017;-79
2022/03/16 10:07:55;;;;;;;25.92;20.67;;;10.50;99.90;;;;;;6211495;23;20669;-74
2022/03/16 10:13:23;;;;;;;23.02;19.23;;;10.70;99.90;;;;;;6211765;23;20039;-77
2022/03/16 10:16:07;;;;;;;24.38;19.80;;;10.80;99.90;;;;;;6184415;23;20020;-78
2022/03/16 10:18:36;;;;;;;26.83;19.27;;;10.90;99.90;;;;;;6212864;23;20452;-78
2022/03/16 10:21:03;;;;;;;24.05;18.95;;;11.00;99.90;;;;;;6186144;23;20013;-75
2022/03/16 10:23:30;;;;;;;24.55;18.25;;;11.00;99.90;;;;;;6213543;23;20017;-76
2022/03/16 10:26:00;;;;;;;;;;;11.10;99.90;;;;;;6211303;23;20024;-76
2022/03/16 10:28:27;;;;;;;21.85;17.35;;;11.10;99.90;;;;;;6186901;23;20039;-77
2022/03/16 10:30:57;;;;;;;;;;;11.20;99.90;;;;;;6212730;23;20059;-78
2022/03/16 10:33:47;;;;;;;21.33;17.25;;;11.30;99.90;;;;;;6213140;23;20328;-78
2022/03/16 10:36:18;;;;;;;21.92;17.20;;;11.30;99.90;;;;;;6213390;23;20474;-78
2022/03/16 10:38:49;;;;;;;20.95;16.75;;;11.40;99.90;;;;;;6210678;23;20021;-75
2022/03/16 10:46:54;;;;;;;20.52;14.63;;;11.60;99.90;;;;;;6184715;23;20029;-77
2022/03/16 10:49:22;;;;;;;19.27;15.30;;;11.70;99.90;;;;;;6213270;23;20012;-75
2022/03/16 10:52:03;;;;;;;20.50;15.93;;;11.70;99.90;;;;;;6186122;23;20021;-75
2022/03/16 10:54:29;;;;;;;23.38;15.68;;;11.80;99.90;;;;;;6213833;23;20059;-75
2022/03/16 10:56:57;;;;;;;21.87;16.03;;;11.90;99.90;;;;;;6212938;23;20016;-75
2022/03/16 10:59:29;;;;;;;19.77;15.82;;;11.90;99.90;;;;;;6212570;23;20236;-81
2022/03/16 11:02:05;;;;;;;22.52;16.83;;;12.00;99.90;;;;;;6185240;23;20095;-77
2022/03/16 11:04:32;;;;;;;21.88;16.38;;;12.00;99.90;;;;;;6213131;23;20016;-78
2022/03/16 11:07:00;;;;;;;21.92;16.70;;;12.10;99.90;;;;;;6183918;23;20021;-78
2022/03/16 11:09:26;;;;;;;22.83;17.17;;;12.10;99.90;;;;;;6212852;23;20521;-79
2022/03/16 11:14:36;;;;;;;22.55;17.00;;;12.30;99.90;;;;;;6211611;23;20020;-81
2022/03/16 11:17:03;;;;;;;22.50;17.50;;;12.40;99.90;;;;;;6211945;23;20315;-77
2022/03/16 11:19:30;;;;;;;23.52;17.67;;;12.40;99.90;;;;;;6213689;23;20035;-78
2022/03/16 11:22:34;;;;;;;22.67;17.75;;;12.50;99.90;;;;;;6211325;23;20024;-78
2022/03/16 11:25:10;;;;;;;24.60;18.10;;;12.50;98.70;;;;;;6210840;23;20024;-79
2022/03/16 11:27:50;;;;;;;23.85;18.00;;;12.50;99.90;;;;;;6184889;23;20393;-79
2022/03/16 11:30:33;;;;;;;21.38;18.08;;;12.50;99.90;;;;;;6212541;23;20099;-78
2022/03/16 11:33:10;;;;;;;22.88;18.58;;;12.50;99.90;;;;;;6185364;23;20025;-79
2022/03/16 11:35:44;;;;;;;23.77;18.93;;;12.60;99.90;;;;;;6210349;23;20024;-78
2022/03/16 11:38:13;;;;;;;25.15;19.40;;;12.60;99.90;;;;;;6185370;23;20023;-78
2022/03/16 11:40:41;;;;;;;24.88;19.00;;;12.70;99.50;;;;;;6211470;23;20095;-78
2022/03/16 11:43:08;;;;;;;24.25;18.55;;;12.80;99.00;;;;;;6183516;23;20012;-78
2022/03/16 11:45:37;;;;;;;25.00;19.48;;;12.80;99.00;;;;;;6212496;23;20344;-78
2022/03/16 11:48:31;;;;;;;24.67;18.85;;;12.90;99.90;;;;;;6211125;23;20040;-78
2022/03/16 11:51:17;;;;;;;23.60;17.83;;;13.10;98.60;;;;;;6184753;23;20012;-76
2022/03/16 11:53:46;;;;;;;27.25;18.90;;;13.10;98.20;;;;;;6211326;23;20028;-78
2022/03/16 11:56:20;;;;;;;26.67;19.10;;;13.20;97.90;;;;;;6211239;23;20021;-76
2022/03/16 11:58:47;;;;;;;22.90;18.80;;;13.30;98.20;;;;;;6184898;23;20028;-79
2022/03/16 12:01:28;;;;;;;22.95;18.88;;;13.40;97.80;;;;;;6185043;23;20013;-76
2022/03/16 12:04:22;;;;;;;23.70;18.70;;;13.40;96.10;;;;;;6210620;23;20024;-76
2022/03/16 12:06:51;;;;;;;26.25;18.42;;;13.40;95.00;;;;;;6211200;23;20027;-81
2022/03/16 12:09:45;;;;;;;25.20;19.75;;;13.50;95.50;;;;;;6209787;23;20017;-79
2022/03/16 12:15:32;;;;;;;25.45;18.48;;;13.60;95.80;;;;;;6211908;23;20345;-77
2022/03/16 12:17:57;;;;;;;23.13;17.95;;;13.60;95.30;;;;;;6210751;23;20322;-77
2022/03/16 12:20:23;;;;;;;24.67;17.73;;;13.70;93.10;;;;;;6211805;23;20017;-76
2022/03/16 12:22:51;;;;;;;23.98;18.08;;;13.70;91.50;;;;;;6183878;23;20445;-78
2022/03/16 12:25:25;;;;;;;23.60;18.38;;;13.80;90.50;;;;;;6184032;23;20040;-76
2022/03/16 12:31:01;;;;;;;23.30;17.88;;;13.80;89.00;;;;;;6206427;23;20021;-76
2022/03/16 12:33:32;;;;;;;26.02;19.33;;;13.90;90.50;;;;;;6212343;23;20047;-74
2022/03/16 12:36:13;;;;;;;25.45;19.08;;;13.90;88.70;;;;;;6184751;23;20027;-74
2022/03/16 12:38:49;;;;;;;26.13;19.08;;;14.00;89.30;;;;;;6211305;23;20021;-75
2022/03/16 12:44:04;;;;;;;22.50;18.33;;;14.00;88.00;;;;;;6184397;23;20448;-74
2022/03/16 12:46:32;;;;;;;22.77;17.15;;;14.10;86.60;;;;;;6211448;23;20015;-75
2022/03/16 12:49:02;;;;;;;24.13;18.15;;;14.10;88.10;;;;;;6210616;23;20024;-75
2022/03/16 12:51:40;;;;;;;26.17;19.30;;;14.20;89.00;;;;;;6183909;23;20547;-75
2022/03/16 12:54:07;;;;;;;26.42;18.60;;;14.20;85.50;;;;;;6210472;23;20026;-76
2022/03/16 12:56:38;;;;;;;21.83;17.83;;;14.30;86.30;;;;;;6212389;23;20023;-77